Saint Lawrence, Pennsylvania
Current Conditions -  °F | °C
As of 11:54 AM on Friday 31 Oct 2014 (Local Time) from KRDG Reporting Station
Clear Clear  
Wind Chill: 51°   Ceiling: Unl
Heat Index: 51°   Visibility: 10mi
Dew Point: 37°   Wind: 3mph
Humidity: 59%   Direction: 170°S
Pressure: 29.98"   Gusts: NA
Location:  40.3351°N, 75.8521°W
Report Text: KRDG 311554Z 17003KT 10SM CLR 11/03 A2998 RMK AO2 SLP159 T01060028
Loading
Personal Weather Stations






























Interactive Weather Map
Tropical Storm Tracking
New forecast layout! Learn more

10-Day Weather Forecast

Advertisements
Track Severe Weather on mobile